sensor_id;sensor_type;location;lat;lon;timestamp;pressure;altitude;pressure_sealevel;temperature;humidity
13015;BME280;6573;57.696;11.950;2022-11-15T00:01:16;100844.56;;;10.74;100.00
13015;BME280;6573;57.696;11.950;2022-11-15T00:03:50;100846.34;;;10.66;100.00
13015;BME280;6573;57.696;11.950;2022-11-15T00:06:19;100841.13;;;10.57;100.00
13015;BME280;6573;57.696;11.950;2022-11-15T00:08:47;100837.59;;;10.55;100.00
13015;BME280;6573;57.696;11.950;2022-11-15T00:11:15;100838.50;;;10.54;100.00
13015;BME280;6573;57.696;11.950;2022-11-15T00:13:43;100837.56;;;10.70;100.00
13015;BME280;6573;57.696;11.950;2022-11-15T00:16:11;100835.81;;;10.66;100.00
13015;BME280;6573;57.696;11.950;2022-11-15T00:18:39;100831.41;;;10.69;100.00
13015;BME280;6573;57.696;11.950;2022-11-15T00:21:17;100830.56;;;10.69;100.00
13015;BME280;6573;57.696;11.950;2022-11-15T00:23:46;100819.09;;;10.83;100.00
13015;BME280;6573;57.696;11.950;2022-11-15T00:26:15;100788.47;;;10.60;100.00
13015;BME280;6573;57.696;11.950;2022-11-15T00:28:43;100817.38;;;10.75;100.00
13015;BME280;6573;57.696;11.950;2022-11-15T00:31:13;100812.97;;;10.77;100.00
13015;BME280;6573;57.696;11.950;2022-11-15T00:33:45;100811.22;;;10.73;100.00
13015;BME280;6573;57.696;11.950;2022-11-15T00:36:14;100820.03;;;10.69;100.00
13015;BME280;6573;57.696;11.950;2022-11-15T00:38:44;100812.16;;;10.64;100.00
13015;BME280;6573;57.696;11.950;2022-11-15T00:41:12;100805.97;;;10.79;100.00
13015;BME280;6573;57.696;11.950;2022-11-15T00:43:40;100797.22;;;10.74;100.00
13015;BME280;6573;57.696;11.950;2022-11-15T00:46:10;100807.78;;;10.59;100.00
13015;BME280;6573;57.696;11.950;2022-11-15T00:48:38;100804.28;;;10.48;100.00
13015;BME280;6573;57.696;11.950;2022-11-15T00:51:06;100800.75;;;10.55;100.00
13015;BME280;6573;57.696;11.950;2022-11-15T00:53:34;100804.25;;;10.66;100.00
13015;BME280;6573;57.696;11.950;2022-11-15T00:56:04;100798.13;;;10.61;100.00
13015;BME280;6573;57.696;11.950;2022-11-15T00:58:33;100799.00;;;10.60;100.00
13015;BME280;6573;57.696;11.950;2022-11-15T01:01:08;100793.78;;;10.57;100.00
13015;BME280;6573;57.696;11.950;2022-11-15T01:03:38;100793.78;;;10.54;100.00
13015;BME280;6573;57.696;11.950;2022-11-15T01:06:07;100796.38;;;10.58;100.00
13015;BME280;6573;57.696;11.950;2022-11-15T01:08:36;100795.50;;;10.58;100.00
13015;BME280;6573;57.696;11.950;2022-11-15T01:11:07;100799.00;;;10.60;100.00
13015;BME280;6573;57.696;11.950;2022-11-15T01:13:37;100797.31;;;10.47;100.00
13015;BME280;6573;57.696;11.950;2022-11-15T01:16:07;100788.50;;;10.54;100.00
13015;BME280;6573;57.696;11.950;2022-11-15T01:18:36;100785.81;;;10.67;100.00
13015;BME280;6573;57.696;11.950;2022-11-15T01:21:06;100786.75;;;10.59;100.00
13015;BME280;6573;57.696;11.950;2022-11-15T01:23:34;100776.22;;;10.56;100.00
13015;BME280;6573;57.696;11.950;2022-11-15T01:26:03;100785.88;;;10.48;100.00
13015;BME280;6573;57.696;11.950;2022-11-15T01:28:36;100778.03;;;10.42;100.00
13015;BME280;6573;57.696;11.950;2022-11-15T01:31:06;100773.63;;;10.48;100.00
13015;BME280;6573;57.696;11.950;2022-11-15T01:33:35;100774.47;;;10.58;100.00
13015;BME280;6573;57.696;11.950;2022-11-15T01:36:04;100781.50;;;10.53;100.00
13015;BME280;6573;57.696;11.950;2022-11-15T01:38:33;100788.50;;;10.54;100.00
13015;BME280;6573;57.696;11.950;2022-11-15T01:41:01;100769.19;;;10.64;100.00
13015;BME280;6573;57.696;11.950;2022-11-15T01:43:32;100768.34;;;10.56;100.00
13015;BME280;6573;57.696;11.950;2022-11-15T01:46:05;100774.50;;;10.52;100.00
13015;BME280;6573;57.696;11.950;2022-11-15T01:48:35;100778.00;;;10.51;100.00
13015;BME280;6573;57.696;11.950;2022-11-15T01:51:06;100768.38;;;10.47;100.00
13015;BME280;6573;57.696;11.950;2022-11-15T01:53:38;100768.38;;;10.42;100.00
13015;BME280;6573;57.696;11.950;2022-11-15T01:56:09;100771.00;;;10.34;100.00
13015;BME280;6573;57.696;11.950;2022-11-15T01:58:40;100765.75;;;10.37;100.00
13015;BME280;6573;57.696;11.950;2022-11-15T02:01:11;100764.03;;;10.33;100.00
13015;BME280;6573;57.696;11.950;2022-11-15T02:03:44;100755.28;;;10.31;100.00
13015;BME280;6573;57.696;11.950;2022-11-15T02:06:16;100763.09;;;10.45;100.00
13015;BME280;6573;57.696;11.950;2022-11-15T02:08:44;100764.03;;;10.30;100.00
13015;BME280;6573;57.696;11.950;2022-11-15T02:11:12;100756.13;;;10.27;100.00
13015;BME280;6573;57.696;11.950;2022-11-15T02:13:41;100752.66;;;10.31;100.00
13015;BME280;6573;57.696;11.950;2022-11-15T02:16:18;100750.88;;;10.33;100.00
13015;BME280;6573;57.696;11.950;2022-11-15T02:19:00;100752.66;;;10.18;100.00
13015;BME280;6573;57.696;11.950;2022-11-15T02:21:35;100751.78;;;10.29;100.00
13015;BME280;6573;57.696;11.950;2022-11-15T02:24:23;100757.91;;;10.31;100.00
13015;BME280;6573;57.696;11.950;2022-11-15T02:27:30;100754.38;;;10.35;100.00
13015;BME280;6573;57.696;11.950;2022-11-15T02:30:14;100746.53;;;10.29;100.00
13015;BME280;6573;57.696;11.950;2022-11-15T02:32:45;100746.47;;;10.35;100.00
13015;BME280;6573;57.696;11.950;2022-11-15T02:35:21;100743.00;;;10.32;100.00
13015;BME280;6573;57.696;11.950;2022-11-15T02:37:56;100743.00;;;10.32;100.00
13015;BME280;6573;57.696;11.950;2022-11-15T02:40:34;100725.53;;;10.14;100.00
13015;BME280;6573;57.696;11.950;2022-11-15T02:43:08;100739.50;;;10.31;100.00
13015;BME280;6573;57.696;11.950;2022-11-15T02:46:00;100732.50;;;10.24;100.00
13015;BME280;6573;57.696;11.950;2022-11-15T02:48:30;100729.03;;;10.16;100.00
13015;BME280;6573;57.696;11.950;2022-11-15T02:50:59;100729.88;;;10.24;100.00
13015;BME280;6573;57.696;11.950;2022-11-15T02:53:28;100724.59;;;10.27;100.00
13015;BME280;6573;57.696;11.950;2022-11-15T02:55:57;100730.72;;;10.32;100.00
13015;BME280;6573;57.696;11.950;2022-11-15T02:58:55;100726.38;;;10.21;100.00
13015;BME280;6573;57.696;11.950;2022-11-15T03:01:38;100732.50;;;10.24;100.00
13015;BME280;6573;57.696;11.950;2022-11-15T03:04:15;100728.97;;;10.25;100.00
13015;BME280;6573;57.696;11.950;2022-11-15T03:07:00;100734.25;;;10.22;100.00
13015;BME280;6573;57.696;11.950;2022-11-15T03:09:34;100733.38;;;10.26;100.00
13015;BME280;6573;57.696;11.950;2022-11-15T03:12:09;100734.25;;;10.28;100.00
13015;BME280;6573;57.696;11.950;2022-11-15T03:14:45;100727.22;;;10.27;100.00
13015;BME280;6573;57.696;11.950;2022-11-15T03:17:24;100743.91;;;10.16;100.00
13015;BME280;6573;57.696;11.950;2022-11-15T03:19:56;100735.13;;;10.11;100.00
13015;BME280;6573;57.696;11.950;2022-11-15T03:22:28;100729.03;;;10.16;100.00
13015;BME280;6573;57.696;11.950;2022-11-15T03:25:00;100735.13;;;10.03;100.00
13015;BME280;6573;57.696;11.950;2022-11-15T03:27:33;100741.25;;;10.11;100.00
13015;BME280;6573;57.696;11.950;2022-11-15T03:30:05;100744.75;;;10.07;100.00
13015;BME280;6573;57.696;11.950;2022-11-15T03:32:37;100756.16;;;10.08;100.00
13015;BME280;6573;57.696;11.950;2022-11-15T03:35:09;100734.28;;;10.04;100.00
13015;BME280;6573;57.696;11.950;2022-11-15T03:37:44;100734.28;;;10.01;100.00
13015;BME280;6573;57.696;11.950;2022-11-15T03:40:14;100737.81;;;9.97;100.00
13015;BME280;6573;57.696;11.950;2022-11-15T03:42:48;100736.03;;;9.99;100.00
13015;BME280;6573;57.696;11.950;2022-11-15T03:45:24;100720.28;;;9.99;100.00
13015;BME280;6573;57.696;11.950;2022-11-15T03:47:58;100722.00;;;10.00;100.00
13015;BME280;6573;57.696;11.950;2022-11-15T03:50:29;100716.75;;;10.00;100.00
13015;BME280;6573;57.696;11.950;2022-11-15T03:52:58;100722.00;;;10.03;100.00
13015;BME280;6573;57.696;11.950;2022-11-15T03:55:26;100719.38;;;10.00;100.00
13015;BME280;6573;57.696;11.950;2022-11-15T03:57:57;100730.78;;;9.96;100.00
13015;BME280;6573;57.696;11.950;2022-11-15T04:00:27;100723.75;;;10.01;100.00
13015;BME280;6573;57.696;11.950;2022-11-15T04:02:57;100722.88;;;10.02;100.00
13015;BME280;6573;57.696;11.950;2022-11-15T04:05:25;100719.34;;;10.05;100.00
13015;BME280;6573;57.696;11.950;2022-11-15T04:07:53;100718.50;;;9.95;100.00
13015;BME280;6573;57.696;11.950;2022-11-15T04:10:21;100716.78;;;9.94;100.00
13015;BME280;6573;57.696;11.950;2022-11-15T04:12:49;100715.91;;;9.97;100.00
13015;BME280;6573;57.696;11.950;2022-11-15T04:15:21;100716.78;;;9.97;100.00
13015;BME280;6573;57.696;11.950;2022-11-15T04:17:51;100714.97;;;10.11;100.00
13015;BME280;6573;57.696;11.950;2022-11-15T04:20:23;100713.25;;;9.98;100.00
13015;BME280;6573;57.696;11.950;2022-11-15T04:23:11;100711.50;;;10.00;100.00
13015;BME280;6573;57.696;11.950;2022-11-15T04:25:59;100700.97;;;10.09;100.00
13015;BME280;6573;57.696;11.950;2022-11-15T04:28:29;100704.47;;;10.02;100.00
13015;BME280;6573;57.696;11.950;2022-11-15T04:30:57;100713.25;;;9.98;100.00
13015;BME280;6573;57.696;11.950;2022-11-15T04:33:25;100706.22;;;10.03;100.00
13015;BME280;6573;57.696;11.950;2022-11-15T04:35:55;100699.22;;;10.08;100.00
13015;BME280;6573;57.696;11.950;2022-11-15T04:38:41;100686.09;;;10.19;100.00
13015;BME280;6573;57.696;11.950;2022-11-15T04:41:09;100681.72;;;10.04;100.00
13015;BME280;6573;57.696;11.950;2022-11-15T04:43:37;100685.22;;;10.09;100.00
13015;BME280;6573;57.696;11.950;2022-11-15T04:46:05;100678.22;;;9.90;100.00
13015;BME280;6573;57.696;11.950;2022-11-15T04:48:34;100694.88;;;9.92;100.00
13015;BME280;6573;57.696;11.950;2022-11-15T04:51:04;100698.38;;;9.94;100.00
13015;BME280;6573;57.696;11.950;2022-11-15T04:53:32;100675.59;;;9.96;100.00
13015;BME280;6573;57.696;11.950;2022-11-15T04:56:01;100679.97;;;10.00;100.00
13015;BME280;6573;57.696;11.950;2022-11-15T04:58:29;100672.09;;;9.94;100.00
13015;BME280;6573;57.696;11.950;2022-11-15T05:00:57;100682.63;;;9.94;100.00
13015;BME280;6573;57.696;11.950;2022-11-15T05:03:25;100685.25;;;9.94;100.00
13015;BME280;6573;57.696;11.950;2022-11-15T05:06:21;100681.75;;;9.89;100.00
13015;BME280;6573;57.696;11.950;2022-11-15T05:08:49;100683.50;;;9.95;100.00
13015;BME280;6573;57.696;11.950;2022-11-15T05:11:17;100688.78;;;9.87;100.00
13015;BME280;6573;57.696;11.950;2022-11-15T05:13:47;100678.25;;;9.87;100.00
13015;BME280;6573;57.696;11.950;2022-11-15T05:16:15;100683.50;;;9.81;100.00
13015;BME280;6573;57.696;11.950;2022-11-15T05:18:43;100673.00;;;9.87;100.00
13015;BME280;6573;57.696;11.950;2022-11-15T05:21:14;100676.50;;;9.80;100.00
13015;BME280;6573;57.696;11.950;2022-11-15T05:23:44;100672.13;;;9.82;100.00
13015;BME280;6573;57.696;11.950;2022-11-15T05:26:12;100669.47;;;9.97;100.00
13015;BME280;6573;57.696;11.950;2022-11-15T05:28:41;100678.22;;;9.93;100.00
13015;BME280;6573;57.696;11.950;2022-11-15T05:31:10;100674.78;;;9.82;100.00
13015;BME280;6573;57.696;11.950;2022-11-15T05:33:39;100674.72;;;9.85;100.00
13015;BME280;6573;57.696;11.950;2022-11-15T05:36:13;100674.72;;;9.91;100.00
13015;BME280;6573;57.696;11.950;2022-11-15T05:38:45;100665.94;;;10.01;100.00
13015;BME280;6573;57.696;11.950;2022-11-15T05:41:15;100662.47;;;9.96;100.00
13015;BME280;6573;57.696;11.950;2022-11-15T05:43:45;100671.22;;;9.95;100.00
13015;BME280;6573;57.696;11.950;2022-11-15T05:46:13;100662.47;;;9.96;100.00
13015;BME280;6573;57.696;11.950;2022-11-15T05:48:44;100668.59;;;9.88;100.00
13015;BME280;6573;57.696;11.950;2022-11-15T05:51:14;100680.03;;;9.82;100.00
13015;BME280;6573;57.696;11.950;2022-11-15T05:53:46;100673.88;;;9.83;100.00
13015;BME280;6573;57.696;11.950;2022-11-15T05:56:15;100679.13;;;9.78;100.00
13015;BME280;6573;57.696;11.950;2022-11-15T05:58:43;100674.72;;;9.85;100.00
13015;BME280;6573;57.696;11.950;2022-11-15T06:01:12;100674.72;;;9.97;100.00
13015;BME280;6573;57.696;11.950;2022-11-15T06:03:40;100679.09;;;9.95;100.00
13015;BME280;6573;57.696;11.950;2022-11-15T06:06:08;100671.25;;;9.83;100.00
13015;BME280;6573;57.696;11.950;2022-11-15T06:08:42;100674.72;;;9.88;100.00
13015;BME280;6573;57.696;11.950;2022-11-15T06:11:11;100668.63;;;9.78;100.00
13015;BME280;6573;57.696;11.950;2022-11-15T06:13:40;100656.34;;;9.90;100.00
13015;BME280;6573;57.696;11.950;2022-11-15T06:16:08;100667.75;;;9.78;100.00
13015;BME280;6573;57.696;11.950;2022-11-15T06:18:36;100666.00;;;9.75;100.00
13015;BME280;6573;57.696;11.950;2022-11-15T06:21:05;100671.28;;;9.74;100.00
13015;BME280;6573;57.696;11.950;2022-11-15T06:23:34;100683.50;;;9.75;100.00
13015;BME280;6573;57.696;11.950;2022-11-15T06:26:03;100676.50;;;9.83;100.00
13015;BME280;6573;57.696;11.950;2022-11-15T06:28:33;100690.50;;;9.85;100.00
13015;BME280;6573;57.696;11.950;2022-11-15T06:31:03;100680.88;;;9.81;100.00
13015;BME280;6573;57.696;11.950;2022-11-15T06:33:33;100680.88;;;9.86;100.00
13015;BME280;6573;57.696;11.950;2022-11-15T06:36:05;100671.25;;;9.86;100.00
13015;BME280;6573;57.696;11.950;2022-11-15T06:38:40;100681.75;;;9.83;100.00
13015;BME280;6573;57.696;11.950;2022-11-15T06:41:10;100678.25;;;9.75;100.00
13015;BME280;6573;57.696;11.950;2022-11-15T06:43:40;100676.50;;;9.86;100.00
13015;BME280;6573;57.696;11.950;2022-11-15T06:46:09;100667.75;;;9.81;100.00
13015;BME280;6573;57.696;11.950;2022-11-15T06:48:37;100674.72;;;9.88;100.00
13015;BME280;6573;57.696;11.950;2022-11-15T06:51:06;100671.22;;;9.95;100.00
13015;BME280;6573;57.696;11.950;2022-11-15T06:53:34;100687.88;;;9.84;100.00
13015;BME280;6573;57.696;11.950;2022-11-15T06:56:05;100684.41;;;9.85;100.00
13015;BME280;6573;57.696;11.950;2022-11-15T06:58:33;100670.38;;;9.83;100.00
13015;BME280;6573;57.696;11.950;2022-11-15T07:01:05;100686.13;;;9.87;100.00
13015;BME280;6573;57.696;11.950;2022-11-15T07:03:37;100688.78;;;9.84;100.00
13015;BME280;6573;57.696;11.950;2022-11-15T07:06:07;100685.25;;;9.94;100.00
13015;BME280;6573;57.696;11.950;2022-11-15T07:08:35;100688.75;;;9.93;100.00
13015;BME280;6573;57.696;11.950;2022-11-15T07:11:06;100693.13;;;9.88;100.00
13015;BME280;6573;57.696;11.950;2022-11-15T07:13:35;100702.75;;;9.95;100.00
13015;BME280;6573;57.696;11.950;2022-11-15T07:16:07;100705.38;;;9.97;100.00
13015;BME280;6573;57.696;11.950;2022-11-15T07:18:36;100708.00;;;9.95;100.00
13015;BME280;6573;57.696;11.950;2022-11-15T07:21:06;100720.25;;;9.93;100.00
13015;BME280;6573;57.696;11.950;2022-11-15T07:23:36;100712.41;;;9.89;100.00
13015;BME280;6573;57.696;11.950;2022-11-15T07:26:05;100731.63;;;10.06;100.00
13015;BME280;6573;57.696;11.950;2022-11-15T07:28:34;100730.78;;;10.14;100.00
13015;BME280;6573;57.696;11.950;2022-11-15T07:31:07;100737.81;;;9.97;100.00
13015;BME280;6573;57.696;11.950;2022-11-15T07:33:36;100743.03;;;10.09;100.00
13015;BME280;6573;57.696;11.950;2022-11-15T07:36:05;100755.31;;;10.13;100.00
13015;BME280;6573;57.696;11.950;2022-11-15T07:38:35;100762.28;;;10.02;100.00
13015;BME280;6573;57.696;11.950;2022-11-15T07:41:08;100762.28;;;10.05;100.00
13015;BME280;6573;57.696;11.950;2022-11-15T07:43:37;100762.28;;;10.11;100.00
13015;BME280;6573;57.696;11.950;2022-11-15T07:46:08;100758.81;;;10.12;100.00
13015;BME280;6573;57.696;11.950;2022-11-15T07:48:37;100759.69;;;10.13;100.00
13015;BME280;6573;57.696;11.950;2022-11-15T07:51:12;100772.81;;;10.11;100.00
13015;BME280;6573;57.696;11.950;2022-11-15T07:53:41;100778.06;;;10.11;100.00
13015;BME280;6573;57.696;11.950;2022-11-15T07:56:09;100768.44;;;10.15;100.00
13015;BME280;6573;57.696;11.950;2022-11-15T07:58:38;100785.97;;;10.19;100.00
13015;BME280;6573;57.696;11.950;2022-11-15T08:01:09;100778.06;;;10.17;100.00
13015;BME280;6573;57.696;11.950;2022-11-15T08:03:38;100779.84;;;10.21;100.00
13015;BME280;6573;57.696;11.950;2022-11-15T08:06:06;100792.06;;;10.25;100.00
13015;BME280;6573;57.696;11.950;2022-11-15T08:08:34;100792.06;;;10.25;100.00
13015;BME280;6573;57.696;11.950;2022-11-15T08:11:02;100795.56;;;10.30;100.00
13015;BME280;6573;57.696;11.950;2022-11-15T08:13:31;100800.84;;;10.27;100.00
13015;BME280;6573;57.696;11.950;2022-11-15T08:16:01;100806.97;;;10.25;100.00
13015;BME280;6573;57.696;11.950;2022-11-15T08:18:34;100803.47;;;10.23;100.00
13015;BME280;6573;57.696;11.950;2022-11-15T08:21:03;100804.34;;;10.20;100.00
13015;BME280;6573;57.696;11.950;2022-11-15T08:23:31;100793.84;;;10.26;100.00
13015;BME280;6573;57.696;11.950;2022-11-15T08:26:01;100804.34;;;10.26;100.00
13015;BME280;6573;57.696;11.950;2022-11-15T08:28:30;100811.34;;;10.27;100.00
13015;BME280;6573;57.696;11.950;2022-11-15T08:30:58;100811.34;;;10.27;100.00
13015;BME280;6573;57.696;11.950;2022-11-15T08:33:27;100800.84;;;10.30;100.00
13015;BME280;6573;57.696;11.950;2022-11-15T08:35:58;100809.59;;;10.20;100.00
13015;BME280;6573;57.696;11.950;2022-11-15T08:38:26;100802.59;;;10.25;100.00
13015;BME280;6573;57.696;11.950;2022-11-15T08:41:01;100811.34;;;10.27;100.00
13015;BME280;6573;57.696;11.950;2022-11-15T08:43:30;100802.59;;;10.31;100.00
13015;BME280;6573;57.696;11.950;2022-11-15T08:45:59;100810.44;;;10.34;100.00
13015;BME280;6573;57.696;11.950;2022-11-15T08:48:27;100811.38;;;10.24;100.00
13015;BME280;6573;57.696;11.950;2022-11-15T08:50:57;100805.22;;;10.28;100.00
13015;BME280;6573;57.696;11.950;2022-11-15T08:53:25;100809.63;;;10.29;100.00
13015;BME280;6573;57.696;11.950;2022-11-15T08:55:53;100806.97;;;10.31;100.00
13015;BME280;6573;57.696;11.950;2022-11-15T08:58:21;100806.09;;;10.33;100.00
13015;BME280;6573;57.696;11.950;2022-11-15T09:00:50;100806.94;;;10.37;100.00
13015;BME280;6573;57.696;11.950;2022-11-15T09:03:18;100804.31;;;10.35;100.00
13015;BME280;6573;57.696;11.950;2022-11-15T09:05:46;100811.34;;;10.30;100.00
13015;BME280;6573;57.696;11.950;2022-11-15T09:08:16;100812.22;;;10.35;100.00
13015;BME280;6573;57.696;11.950;2022-11-15T09:11:05;100797.31;;;10.34;100.00
13015;BME280;6573;57.696;11.950;2022-11-15T09:13:34;100799.06;;;10.38;100.00
13015;BME280;6573;57.696;11.950;2022-11-15T09:16:04;100805.19;;;10.45;100.00
13015;BME280;6573;57.696;11.950;2022-11-15T09:18:32;100796.44;;;10.35;100.00
13015;BME280;6573;57.696;11.950;2022-11-15T09:21:01;100799.06;;;10.38;100.00
13015;BME280;6573;57.696;11.950;2022-11-15T09:23:31;100799.94;;;10.40;100.00
13015;BME280;6573;57.696;11.950;2022-11-15T09:26:00;100801.69;;;10.43;100.00
13015;BME280;6573;57.696;11.950;2022-11-15T09:28:30;100811.31;;;10.39;100.00
13015;BME280;6573;57.696;11.950;2022-11-15T09:31:02;100809.59;;;10.38;100.00
13015;BME280;6573;57.696;11.950;2022-11-15T09:33:31;100814.81;;;10.54;100.00
13015;BME280;6573;57.696;11.950;2022-11-15T09:36:00;100816.59;;;10.52;100.00
13015;BME280;6573;57.696;11.950;2022-11-15T09:38:31;100830.59;;;10.51;100.00
13015;BME280;6573;57.696;11.950;2022-11-15T09:41:29;100817.44;;;10.51;100.00
13015;BME280;6573;57.696;11.950;2022-11-15T09:44:14;100825.34;;;10.54;100.00
13015;BME280;6573;57.696;11.950;2022-11-15T09:47:03;100818.31;;;10.53;100.00
13015;BME280;6573;57.696;11.950;2022-11-15T09:49:37;100801.66;;;10.45;100.00
13015;BME280;6573;57.696;11.950;2022-11-15T09:52:07;100828.88;;;10.47;100.00
13015;BME280;6573;57.696;11.950;2022-11-15T09:54:47;100827.09;;;10.49;100.00
13015;BME280;6573;57.696;11.950;2022-11-15T09:57:27;100816.53;;;10.55;100.00
13015;BME280;6573;57.696;11.950;2022-11-15T10:00:12;100816.53;;;10.64;100.00
13015;BME280;6573;57.696;11.950;2022-11-15T10:03:14;100810.41;;;10.62;100.00
13015;BME280;6573;57.696;11.950;2022-11-15T10:05:45;100823.56;;;10.59;100.00
13015;BME280;6573;57.696;11.950;2022-11-15T10:08:31;100828.84;;;10.56;100.00
13015;BME280;6573;57.696;11.950;2022-11-15T10:11:07;100826.22;;;10.54;100.00
13015;BME280;6573;57.696;11.950;2022-11-15T10:13:58;100821.75;;;10.70;100.00
13015;BME280;6573;57.696;11.950;2022-11-15T10:16:44;100822.66;;;10.66;100.00
13015;BME280;6573;57.696;11.950;2022-11-15T10:19:22;100833.22;;;10.58;100.00
13015;BME280;6573;57.696;11.950;2022-11-15T10:21:59;100834.06;;;10.63;100.00
13015;BME280;6573;57.696;11.950;2022-11-15T10:24:34;100835.81;;;10.66;100.00
13015;BME280;6573;57.696;11.950;2022-11-15T10:27:10;100834.06;;;10.71;100.00
13015;BME280;6573;57.696;11.950;2022-11-15T10:29:43;100832.28;;;10.79;100.00
13015;BME280;6573;57.696;11.950;2022-11-15T10:32:13;100835.78;;;10.78;100.00
13015;BME280;6573;57.696;11.950;2022-11-15T10:34:42;100834.06;;;10.74;100.00
13015;BME280;6573;57.696;11.950;2022-11-15T10:37:11;100834.91;;;10.70;100.00
13015;BME280;6573;57.696;11.950;2022-11-15T10:39:39;100841.03;;;10.75;100.00
13015;BME280;6573;57.696;11.950;2022-11-15T10:42:25;100834.00;;;10.83;100.00
13015;BME280;6573;57.696;11.950;2022-11-15T10:44:54;100841.91;;;10.80;100.00
13015;BME280;6573;57.696;11.950;2022-11-15T10:47:25;100830.50;;;10.78;100.00
13015;BME280;6573;57.696;11.950;2022-11-15T10:50:00;100841.03;;;10.84;100.00
13015;BME280;6573;57.696;11.950;2022-11-15T10:52:30;100834.00;;;10.83;100.00
13015;BME280;6573;57.696;11.950;2022-11-15T10:55:02;100824.31;;;10.92;100.00
13015;BME280;6573;57.696;11.950;2022-11-15T10:57:36;100833.13;;;10.85;100.00
13015;BME280;6573;57.696;11.950;2022-11-15T11:00:06;100827.84;;;10.87;100.00
13015;BME280;6573;57.696;11.950;2022-11-15T11:02:41;100834.00;;;10.86;100.00
13015;BME280;6573;57.696;11.950;2022-11-15T11:05:26;100828.75;;;10.86;100.00
13015;BME280;6573;57.696;11.950;2022-11-15T11:07:56;100833.16;;;10.75;100.00
13015;BME280;6573;57.696;11.950;2022-11-15T11:10:25;100826.16;;;10.74;100.00
13015;BME280;6573;57.696;11.950;2022-11-15T11:13:21;100800.72;;;10.76;100.00
13015;BME280;6573;57.696;11.950;2022-11-15T11:15:55;100812.06;;;10.82;100.00
13015;BME280;6573;57.696;11.950;2022-11-15T11:18:32;100809.47;;;10.78;100.00
13015;BME280;6573;57.696;11.950;2022-11-15T11:21:05;100814.78;;;10.69;100.00
13015;BME280;6573;57.696;11.950;2022-11-15T11:23:44;100818.22;;;10.77;100.00
13015;BME280;6573;57.696;11.950;2022-11-15T11:26:34;100823.47;;;10.83;100.00
13015;BME280;6573;57.696;11.950;2022-11-15T11:29:16;100813.84;;;10.86;100.00
13015;BME280;6573;57.696;11.950;2022-11-15T11:31:56;100831.38;;;10.83;100.00
13015;BME280;6573;57.696;11.950;2022-11-15T11:34:36;100810.34;;;10.77;100.00
13015;BME280;6573;57.696;11.950;2022-11-15T11:37:14;100811.19;;;10.82;100.00
13015;BME280;6573;57.696;11.950;2022-11-15T11:39:55;100814.72;;;10.84;100.00
13015;BME280;6573;57.696;11.950;2022-11-15T11:42:42;100805.91;;;10.88;100.00
13015;BME280;6573;57.696;11.950;2022-11-15T11:45:22;100801.50;;;10.94;100.00
13015;BME280;6573;57.696;11.950;2022-11-15T11:48:02;100819.13;;;10.79;100.00
13015;BME280;6573;57.696;11.950;2022-11-15T11:50:36;100804.19;;;10.84;100.00
13015;BME280;6573;57.696;11.950;2022-11-15T11:53:11;100805.91;;;10.85;100.00
13015;BME280;6573;57.696;11.950;2022-11-15T11:55:42;100793.63;;;10.90;100.00
13015;BME280;6573;57.696;11.950;2022-11-15T11:58:14;100802.41;;;10.89;100.00
13015;BME280;6573;57.696;11.950;2022-11-15T12:00:47;100805.91;;;10.94;100.00
13015;BME280;6573;57.696;11.950;2022-11-15T12:03:24;100805.00;;;10.95;100.00
13015;BME280;6573;57.696;11.950;2022-11-15T12:05:58;100809.41;;;10.96;100.00
13015;BME280;6573;57.696;11.950;2022-11-15T12:08:32;100809.34;;;10.99;100.00
13015;BME280;6573;57.696;11.950;2022-11-15T12:11:14;100814.66;;;10.96;100.00
13015;BME280;6573;57.696;11.950;2022-11-15T12:13:49;100821.66;;;10.97;100.00
13015;BME280;6573;57.696;11.950;2022-11-15T12:16:22;100818.16;;;11.01;100.00
13015;BME280;6573;57.696;11.950;2022-11-15T12:18:54;100826.91;;;10.97;100.00
13015;BME280;6573;57.696;11.950;2022-11-15T12:21:31;100828.72;;;10.93;100.00
13015;BME280;6573;57.696;11.950;2022-11-15T12:24:06;100832.19;;;11.03;100.00
13015;BME280;6573;57.696;11.950;2022-11-15T12:26:39;100836.56;;;11.01;100.00
13015;BME280;6573;57.696;11.950;2022-11-15T12:29:15;100833.91;;;11.07;100.00
13015;BME280;6573;57.696;11.950;2022-11-15T12:31:50;100835.69;;;11.02;100.00
13015;BME280;6573;57.696;11.950;2022-11-15T12:37:34;100826.91;;;10.97;100.00
13015;BME280;6573;57.696;11.950;2022-11-15T12:40:18;100833.94;;;11.01;100.00
13015;BME280;6573;57.696;11.950;2022-11-15T12:42:59;100825.13;;;11.10;100.00
13015;BME280;6573;57.696;11.950;2022-11-15T12:45:30;100830.38;;;11.11;100.00
13015;BME280;6573;57.696;11.950;2022-11-15T12:51:04;100825.06;;;11.17;100.00
13015;BME280;6573;57.696;11.950;2022-11-15T12:53:34;100836.50;;;11.12;100.00
13015;BME280;6573;57.696;11.950;2022-11-15T12:56:23;100832.16;;;11.06;100.00
13015;BME280;6573;57.696;11.950;2022-11-15T12:58:55;100826.91;;;10.97;100.00
13015;BME280;6573;57.696;11.950;2022-11-15T13:04:29;100823.34;;;11.16;100.00
13015;BME280;6573;57.696;11.950;2022-11-15T13:07:01;100821.63;;;11.06;100.00
13015;BME280;6573;57.696;11.950;2022-11-15T13:09:50;100814.66;;;10.93;100.00
13015;BME280;6573;57.696;11.950;2022-11-15T13:12:50;100809.47;;;10.81;100.00
13015;BME280;6573;57.696;11.950;2022-11-15T13:15:55;100804.19;;;10.81;100.00
13015;BME280;6573;57.696;11.950;2022-11-15T13:18:33;100795.41;;;10.82;100.00
13015;BME280;6573;57.696;11.950;2022-11-15T13:21:04;100784.03;;;10.78;100.00